sensor_id;sensor_type;location;lat;lon;timestamp;P1;durP1;ratioP1;P2;durP2;ratioP2
76693;SDS011;65625;52.136;5.424;2023-04-03T00:00:46;2.00;;;1.00;;
76693;SDS011;65625;52.136;5.424;2023-04-03T00:03:12;2.10;;;0.60;;
76693;SDS011;65625;52.136;5.424;2023-04-03T00:05:39;2.10;;;0.95;;
76693;SDS011;65625;52.136;5.424;2023-04-03T00:08:05;1.60;;;0.70;;
76693;SDS011;65625;52.136;5.424;2023-04-03T00:10:34;2.08;;;0.80;;
76693;SDS011;65625;52.136;5.424;2023-04-03T00:13:01;3.08;;;0.70;;
76693;SDS011;65625;52.136;5.424;2023-04-03T00:15:29;1.63;;;0.63;;
76693;SDS011;65625;52.136;5.424;2023-04-03T00:17:55;2.15;;;0.90;;
76693;SDS011;65625;52.136;5.424;2023-04-03T00:20:23;1.65;;;0.70;;
76693;SDS011;65625;52.136;5.424;2023-04-03T00:22:49;2.00;;;0.73;;
76693;SDS011;65625;52.136;5.424;2023-04-03T00:25:16;2.08;;;0.77;;
76693;SDS011;65625;52.136;5.424;2023-04-03T00:27:43;1.27;;;0.52;;
76693;SDS011;65625;52.136;5.424;2023-04-03T00:30:10;2.55;;;0.73;;
76693;SDS011;65625;52.136;5.424;2023-04-03T00:32:39;2.78;;;0.80;;
76693;SDS011;65625;52.136;5.424;2023-04-03T00:35:06;2.25;;;0.75;;
76693;SDS011;65625;52.136;5.424;2023-04-03T00:37:33;3.35;;;0.90;;
76693;SDS011;65625;52.136;5.424;2023-04-03T00:39:59;2.95;;;0.60;;
76693;SDS011;65625;52.136;5.424;2023-04-03T00:42:26;2.50;;;0.80;;
76693;SDS011;65625;52.136;5.424;2023-04-03T00:47:23;2.08;;;0.70;;
76693;SDS011;65625;52.136;5.424;2023-04-03T00:49:50;3.28;;;1.05;;
76693;SDS011;65625;52.136;5.424;2023-04-03T00:52:19;4.10;;;1.10;;
76693;SDS011;65625;52.136;5.424;2023-04-03T00:54:50;2.95;;;1.00;;
76693;SDS011;65625;52.136;5.424;2023-04-03T00:57:21;2.10;;;0.75;;
76693;SDS011;65625;52.136;5.424;2023-04-03T00:59:49;3.40;;;0.95;;
76693;SDS011;65625;52.136;5.424;2023-04-03T01:02:19;2.40;;;0.85;;
76693;SDS011;65625;52.136;5.424;2023-04-03T01:04:46;1.45;;;0.70;;
76693;SDS011;65625;52.136;5.424;2023-04-03T01:07:17;3.10;;;0.80;;
76693;SDS011;65625;52.136;5.424;2023-04-03T01:09:48;1.92;;;0.60;;
76693;SDS011;65625;52.136;5.424;2023-04-03T01:12:19;2.88;;;0.90;;
76693;SDS011;65625;52.136;5.424;2023-04-03T01:14:48;2.88;;;0.60;;
76693;SDS011;65625;52.136;5.424;2023-04-03T01:25:35;2.45;;;0.80;;
76693;SDS011;65625;52.136;5.424;2023-04-03T01:28:07;3.47;;;0.88;;
76693;SDS011;65625;52.136;5.424;2023-04-03T01:30:38;3.40;;;1.13;;
76693;SDS011;65625;52.136;5.424;2023-04-03T01:33:09;2.00;;;1.00;;
76693;SDS011;65625;52.136;5.424;2023-04-03T01:35:37;2.20;;;1.05;;
76693;SDS011;65625;52.136;5.424;2023-04-03T01:38:03;2.88;;;0.80;;
76693;SDS011;65625;52.136;5.424;2023-04-03T01:40:30;4.70;;;0.90;;
76693;SDS011;65625;52.136;5.424;2023-04-03T01:42:57;4.60;;;0.90;;
76693;SDS011;65625;52.136;5.424;2023-04-03T01:45:23;5.07;;;1.50;;
76693;SDS011;65625;52.136;5.424;2023-04-03T01:47:50;3.15;;;1.10;;
76693;SDS011;65625;52.136;5.424;2023-04-03T01:50:17;2.85;;;1.00;;
76693;SDS011;65625;52.136;5.424;2023-04-03T01:52:44;3.03;;;0.90;;
76693;SDS011;65625;52.136;5.424;2023-04-03T01:55:10;5.07;;;1.20;;
76693;SDS011;65625;52.136;5.424;2023-04-03T01:57:37;2.63;;;1.10;;
76693;SDS011;65625;52.136;5.424;2023-04-03T02:00:04;4.22;;;0.93;;
76693;SDS011;65625;52.136;5.424;2023-04-03T02:02:38;6.07;;;1.02;;
76693;SDS011;65625;52.136;5.424;2023-04-03T02:05:05;3.35;;;1.00;;
76693;SDS011;65625;52.136;5.424;2023-04-03T02:07:32;3.58;;;1.10;;
76693;SDS011;65625;52.136;5.424;2023-04-03T02:09:58;3.10;;;0.90;;
76693;SDS011;65625;52.136;5.424;2023-04-03T02:12:25;4.00;;;1.40;;
76693;SDS011;65625;52.136;5.424;2023-04-03T02:14:51;3.08;;;1.00;;
76693;SDS011;65625;52.136;5.424;2023-04-03T02:17:19;3.38;;;0.80;;
76693;SDS011;65625;52.136;5.424;2023-04-03T02:19:46;5.35;;;1.30;;
76693;SDS011;65625;52.136;5.424;2023-04-03T02:22:12;2.08;;;0.93;;
76693;SDS011;65625;52.136;5.424;2023-04-03T02:24:39;3.00;;;0.82;;
76693;SDS011;65625;52.136;5.424;2023-04-03T02:27:06;5.78;;;1.08;;
76693;SDS011;65625;52.136;5.424;2023-04-03T02:29:33;7.22;;;1.30;;
76693;SDS011;65625;52.136;5.424;2023-04-03T02:31:59;2.13;;;0.95;;
76693;SDS011;65625;52.136;5.424;2023-04-03T02:34:26;4.03;;;1.20;;
76693;SDS011;65625;52.136;5.424;2023-04-03T02:36:54;2.00;;;0.80;;
76693;SDS011;65625;52.136;5.424;2023-04-03T02:39:20;3.47;;;1.20;;
76693;SDS011;65625;52.136;5.424;2023-04-03T02:41:47;2.67;;;1.00;;
76693;SDS011;65625;52.136;5.424;2023-04-03T02:44:19;2.00;;;1.15;;
76693;SDS011;65625;52.136;5.424;2023-04-03T02:46:46;1.50;;;0.68;;
76693;SDS011;65625;52.136;5.424;2023-04-03T02:49:13;1.85;;;0.60;;
76693;SDS011;65625;52.136;5.424;2023-04-03T02:51:39;2.83;;;0.88;;
76693;SDS011;65625;52.136;5.424;2023-04-03T02:54:06;4.75;;;1.25;;
76693;SDS011;65625;52.136;5.424;2023-04-03T02:56:35;6.07;;;1.27;;
76693;SDS011;65625;52.136;5.424;2023-04-03T02:59:01;3.22;;;1.20;;
76693;SDS011;65625;52.136;5.424;2023-04-03T03:01:29;4.55;;;1.05;;
76693;SDS011;65625;52.136;5.424;2023-04-03T03:03:58;2.65;;;1.05;;
76693;SDS011;65625;52.136;5.424;2023-04-03T03:06:25;2.53;;;0.90;;
76693;SDS011;65625;52.136;5.424;2023-04-03T03:08:53;5.50;;;1.40;;
76693;SDS011;65625;52.136;5.424;2023-04-03T03:11:20;5.30;;;1.20;;
76693;SDS011;65625;52.136;5.424;2023-04-03T03:13:47;3.33;;;1.02;;
76693;SDS011;65625;52.136;5.424;2023-04-03T03:16:13;2.55;;;1.20;;
76693;SDS011;65625;52.136;5.424;2023-04-03T03:18:40;4.15;;;0.90;;
76693;SDS011;65625;52.136;5.424;2023-04-03T03:21:08;5.18;;;1.20;;
76693;SDS011;65625;52.136;5.424;2023-04-03T03:23:36;4.80;;;1.05;;
76693;SDS011;65625;52.136;5.424;2023-04-03T03:26:04;3.60;;;1.00;;
76693;SDS011;65625;52.136;5.424;2023-04-03T03:28:33;4.35;;;1.20;;
76693;SDS011;65625;52.136;5.424;2023-04-03T03:31:00;3.70;;;1.40;;
76693;SDS011;65625;52.136;5.424;2023-04-03T03:33:28;3.63;;;1.15;;
76693;SDS011;65625;52.136;5.424;2023-04-03T03:35:54;6.30;;;1.23;;
76693;SDS011;65625;52.136;5.424;2023-04-03T03:38:22;4.25;;;1.60;;
76693;SDS011;65625;52.136;5.424;2023-04-03T03:40:50;4.63;;;1.23;;
76693;SDS011;65625;52.136;5.424;2023-04-03T03:43:19;5.05;;;1.13;;
76693;SDS011;65625;52.136;5.424;2023-04-03T03:45:51;2.35;;;1.08;;
76693;SDS011;65625;52.136;5.424;2023-04-03T03:48:19;2.17;;;1.00;;
76693;SDS011;65625;52.136;5.424;2023-04-03T03:50:47;4.65;;;1.25;;
76693;SDS011;65625;52.136;5.424;2023-04-03T03:53:14;5.80;;;1.50;;
76693;SDS011;65625;52.136;5.424;2023-04-03T03:55:41;3.15;;;1.13;;
76693;SDS011;65625;52.136;5.424;2023-04-03T03:58:08;2.05;;;1.00;;
76693;SDS011;65625;52.136;5.424;2023-04-03T04:00:35;4.68;;;1.08;;
76693;SDS011;65625;52.136;5.424;2023-04-03T04:03:02;3.78;;;1.30;;
76693;SDS011;65625;52.136;5.424;2023-04-03T04:05:30;4.55;;;1.10;;
76693;SDS011;65625;52.136;5.424;2023-04-03T04:07:58;3.53;;;1.50;;
76693;SDS011;65625;52.136;5.424;2023-04-03T04:10:25;5.28;;;1.20;;
76693;SDS011;65625;52.136;5.424;2023-04-03T04:12:53;2.28;;;1.02;;
76693;SDS011;65625;52.136;5.424;2023-04-03T04:15:24;6.38;;;1.10;;
76693;SDS011;65625;52.136;5.424;2023-04-03T04:17:53;2.50;;;0.98;;
76693;SDS011;65625;52.136;5.424;2023-04-03T04:20:20;5.05;;;1.42;;
76693;SDS011;65625;52.136;5.424;2023-04-03T04:22:47;4.80;;;1.25;;
76693;SDS011;65625;52.136;5.424;2023-04-03T04:25:15;4.85;;;1.50;;
76693;SDS011;65625;52.136;5.424;2023-04-03T04:27:42;3.28;;;0.85;;
76693;SDS011;65625;52.136;5.424;2023-04-03T04:30:09;6.78;;;1.30;;
76693;SDS011;65625;52.136;5.424;2023-04-03T04:32:37;4.25;;;1.70;;
76693;SDS011;65625;52.136;5.424;2023-04-03T04:35:04;4.28;;;1.23;;
76693;SDS011;65625;52.136;5.424;2023-04-03T04:37:34;2.90;;;0.90;;
76693;SDS011;65625;52.136;5.424;2023-04-03T04:40:01;3.88;;;1.30;;
76693;SDS011;65625;52.136;5.424;2023-04-03T04:42:28;2.55;;;1.13;;
76693;SDS011;65625;52.136;5.424;2023-04-03T04:44:54;3.85;;;1.20;;
76693;SDS011;65625;52.136;5.424;2023-04-03T04:47:21;3.45;;;1.48;;
76693;SDS011;65625;52.136;5.424;2023-04-03T04:49:48;4.38;;;1.40;;
76693;SDS011;65625;52.136;5.424;2023-04-03T04:52:15;5.47;;;1.83;;
76693;SDS011;65625;52.136;5.424;2023-04-03T04:54:42;3.35;;;1.42;;
76693;SDS011;65625;52.136;5.424;2023-04-03T04:57:09;4.40;;;1.67;;
76693;SDS011;65625;52.136;5.424;2023-04-03T04:59:37;4.55;;;1.02;;
76693;SDS011;65625;52.136;5.424;2023-04-03T05:02:06;3.42;;;1.60;;
76693;SDS011;65625;52.136;5.424;2023-04-03T05:04:33;4.35;;;1.20;;
76693;SDS011;65625;52.136;5.424;2023-04-03T05:07:06;7.43;;;1.40;;
76693;SDS011;65625;52.136;5.424;2023-04-03T05:09:35;5.53;;;1.25;;
76693;SDS011;65625;52.136;5.424;2023-04-03T05:12:01;9.35;;;1.85;;
76693;SDS011;65625;52.136;5.424;2023-04-03T05:14:35;3.60;;;1.40;;
76693;SDS011;65625;52.136;5.424;2023-04-03T05:17:05;2.78;;;1.10;;
76693;SDS011;65625;52.136;5.424;2023-04-03T05:19:35;7.68;;;1.88;;
76693;SDS011;65625;52.136;5.424;2023-04-03T05:22:04;5.70;;;1.75;;
76693;SDS011;65625;52.136;5.424;2023-04-03T05:24:30;4.55;;;1.25;;
76693;SDS011;65625;52.136;5.424;2023-04-03T05:26:57;5.50;;;1.20;;
76693;SDS011;65625;52.136;5.424;2023-04-03T05:29:24;3.95;;;1.20;;
76693;SDS011;65625;52.136;5.424;2023-04-03T05:31:51;4.00;;;1.35;;
76693;SDS011;65625;52.136;5.424;2023-04-03T05:34:18;3.78;;;1.23;;
76693;SDS011;65625;52.136;5.424;2023-04-03T05:36:47;2.67;;;1.05;;
76693;SDS011;65625;52.136;5.424;2023-04-03T05:39:14;2.75;;;1.23;;
76693;SDS011;65625;52.136;5.424;2023-04-03T05:41:43;2.40;;;1.00;;
76693;SDS011;65625;52.136;5.424;2023-04-03T05:44:09;3.38;;;1.17;;
76693;SDS011;65625;52.136;5.424;2023-04-03T05:46:36;2.85;;;1.23;;
76693;SDS011;65625;52.136;5.424;2023-04-03T05:49:05;2.95;;;0.93;;
76693;SDS011;65625;52.136;5.424;2023-04-03T05:51:36;3.95;;;1.20;;
76693;SDS011;65625;52.136;5.424;2023-04-03T05:56:51;3.53;;;0.95;;
76693;SDS011;65625;52.136;5.424;2023-04-03T05:59:19;2.72;;;0.98;;
76693;SDS011;65625;52.136;5.424;2023-04-03T06:01:49;2.75;;;1.20;;
76693;SDS011;65625;52.136;5.424;2023-04-03T06:04:16;5.50;;;1.35;;
76693;SDS011;65625;52.136;5.424;2023-04-03T06:06:44;2.63;;;1.02;;
76693;SDS011;65625;52.136;5.424;2023-04-03T06:09:11;2.95;;;1.00;;
76693;SDS011;65625;52.136;5.424;2023-04-03T06:11:38;7.35;;;1.75;;
76693;SDS011;65625;52.136;5.424;2023-04-03T06:14:05;6.68;;;1.48;;
76693;SDS011;65625;52.136;5.424;2023-04-03T06:16:31;3.80;;;0.95;;
76693;SDS011;65625;52.136;5.424;2023-04-03T06:18:58;3.25;;;1.20;;
76693;SDS011;65625;52.136;5.424;2023-04-03T06:21:25;4.57;;;1.20;;
76693;SDS011;65625;52.136;5.424;2023-04-03T06:23:52;3.63;;;1.42;;
76693;SDS011;65625;52.136;5.424;2023-04-03T06:26:18;5.47;;;1.27;;
76693;SDS011;65625;52.136;5.424;2023-04-03T06:28:45;9.00;;;1.48;;
76693;SDS011;65625;52.136;5.424;2023-04-03T06:31:11;4.97;;;1.35;;
76693;SDS011;65625;52.136;5.424;2023-04-03T06:33:38;6.03;;;1.60;;
76693;SDS011;65625;52.136;5.424;2023-04-03T06:36:05;4.80;;;1.25;;
76693;SDS011;65625;52.136;5.424;2023-04-03T06:38:32;7.57;;;1.33;;
76693;SDS011;65625;52.136;5.424;2023-04-03T06:40:59;2.95;;;1.30;;
76693;SDS011;65625;52.136;5.424;2023-04-03T06:43:26;5.55;;;1.05;;
76693;SDS011;65625;52.136;5.424;2023-04-03T06:45:52;2.53;;;0.85;;
76693;SDS011;65625;52.136;5.424;2023-04-03T06:48:19;3.63;;;1.30;;
76693;SDS011;65625;52.136;5.424;2023-04-03T06:50:45;3.88;;;1.30;;
76693;SDS011;65625;52.136;5.424;2023-04-03T06:53:12;1.95;;;0.88;;
76693;SDS011;65625;52.136;5.424;2023-04-03T06:55:38;4.60;;;1.10;;
76693;SDS011;65625;52.136;5.424;2023-04-03T06:58:05;4.15;;;1.60;;
76693;SDS011;65625;52.136;5.424;2023-04-03T07:00:32;3.10;;;1.15;;
76693;SDS011;65625;52.136;5.424;2023-04-03T07:02:59;5.20;;;1.08;;
76693;SDS011;65625;52.136;5.424;2023-04-03T07:05:25;2.55;;;1.08;;
76693;SDS011;65625;52.136;5.424;2023-04-03T07:07:52;4.47;;;1.35;;
76693;SDS011;65625;52.136;5.424;2023-04-03T07:10:19;5.90;;;1.58;;
76693;SDS011;65625;52.136;5.424;2023-04-03T07:12:46;8.95;;;1.38;;
76693;SDS011;65625;52.136;5.424;2023-04-03T07:15:13;6.30;;;1.20;;
76693;SDS011;65625;52.136;5.424;2023-04-03T07:17:41;3.03;;;0.90;;
76693;SDS011;65625;52.136;5.424;2023-04-03T07:20:08;3.17;;;1.30;;
76693;SDS011;65625;52.136;5.424;2023-04-03T07:22:35;7.72;;;1.25;;
76693;SDS011;65625;52.136;5.424;2023-04-03T07:25:01;5.03;;;1.13;;
76693;SDS011;65625;52.136;5.424;2023-04-03T07:27:29;4.82;;;1.05;;
76693;SDS011;65625;52.136;5.424;2023-04-03T07:29:55;4.40;;;1.20;;
76693;SDS011;65625;52.136;5.424;2023-04-03T07:32:22;4.32;;;1.02;;
76693;SDS011;65625;52.136;5.424;2023-04-03T07:34:48;4.22;;;1.35;;
76693;SDS011;65625;52.136;5.424;2023-04-03T07:37:15;4.28;;;1.55;;
76693;SDS011;65625;52.136;5.424;2023-04-03T07:39:43;4.13;;;1.40;;
76693;SDS011;65625;52.136;5.424;2023-04-03T07:42:11;5.28;;;1.50;;
76693;SDS011;65625;52.136;5.424;2023-04-03T07:44:39;2.85;;;0.95;;
76693;SDS011;65625;52.136;5.424;2023-04-03T07:47:06;4.95;;;1.30;;
76693;SDS011;65625;52.136;5.424;2023-04-03T07:49:33;3.75;;;1.20;;
76693;SDS011;65625;52.136;5.424;2023-04-03T07:52:00;4.35;;;1.23;;
76693;SDS011;65625;52.136;5.424;2023-04-03T07:54:27;4.88;;;1.15;;
76693;SDS011;65625;52.136;5.424;2023-04-03T07:56:54;4.10;;;1.25;;
76693;SDS011;65625;52.136;5.424;2023-04-03T07:59:21;2.47;;;1.30;;
76693;SDS011;65625;52.136;5.424;2023-04-03T08:01:47;3.47;;;1.00;;
76693;SDS011;65625;52.136;5.424;2023-04-03T08:04:14;3.67;;;1.70;;
76693;SDS011;65625;52.136;5.424;2023-04-03T08:06:41;4.88;;;1.15;;
76693;SDS011;65625;52.136;5.424;2023-04-03T08:09:13;3.80;;;1.23;;
76693;SDS011;65625;52.136;5.424;2023-04-03T08:11:41;3.45;;;1.17;;
76693;SDS011;65625;52.136;5.424;2023-04-03T08:14:08;3.97;;;1.20;;
76693;SDS011;65625;52.136;5.424;2023-04-03T08:16:42;3.20;;;1.10;;
76693;SDS011;65625;52.136;5.424;2023-04-03T08:19:10;5.47;;;1.30;;
76693;SDS011;65625;52.136;5.424;2023-04-03T08:21:51;3.00;;;1.20;;
76693;SDS011;65625;52.136;5.424;2023-04-03T08:24:17;3.97;;;1.27;;
76693;SDS011;65625;52.136;5.424;2023-04-03T08:26:44;3.40;;;1.00;;
76693;SDS011;65625;52.136;5.424;2023-04-03T08:29:13;3.22;;;1.13;;
76693;SDS011;65625;52.136;5.424;2023-04-03T08:31:39;2.65;;;1.08;;
76693;SDS011;65625;52.136;5.424;2023-04-03T08:34:06;2.30;;;0.82;;
76693;SDS011;65625;52.136;5.424;2023-04-03T08:36:32;2.60;;;1.23;;
76693;SDS011;65625;52.136;5.424;2023-04-03T08:38:59;4.95;;;1.00;;
76693;SDS011;65625;52.136;5.424;2023-04-03T08:41:29;2.20;;;0.80;;
76693;SDS011;65625;52.136;5.424;2023-04-03T08:47:23;2.35;;;0.80;;
76693;SDS011;65625;52.136;5.424;2023-04-03T08:49:57;2.95;;;0.90;;
76693;SDS011;65625;52.136;5.424;2023-04-03T08:52:31;2.63;;;0.90;;
76693;SDS011;65625;52.136;5.424;2023-04-03T08:55:00;2.03;;;0.80;;
76693;SDS011;65625;52.136;5.424;2023-04-03T08:57:38;3.95;;;1.00;;
76693;SDS011;65625;52.136;5.424;2023-04-03T09:00:19;3.05;;;0.80;;
76693;SDS011;65625;52.136;5.424;2023-04-03T09:02:52;2.03;;;0.73;;
76693;SDS011;65625;52.136;5.424;2023-04-03T09:10:49;2.60;;;0.70;;
76693;SDS011;65625;52.136;5.424;2023-04-03T09:13:26;1.55;;;0.70;;
76693;SDS011;65625;52.136;5.424;2023-04-03T09:15:55;1.92;;;0.50;;
76693;SDS011;65625;52.136;5.424;2023-04-03T09:18:28;2.47;;;0.60;;
76693;SDS011;65625;52.136;5.424;2023-04-03T09:21:01;2.55;;;0.75;;
76693;SDS011;65625;52.136;5.424;2023-04-03T09:23:31;0.85;;;0.43;;
76693;SDS011;65625;52.136;5.424;2023-04-03T09:26:25;1.38;;;0.50;;
76693;SDS011;65625;52.136;5.424;2023-04-03T09:28:57;2.38;;;0.60;;
76693;SDS011;65625;52.136;5.424;2023-04-03T09:31:29;2.38;;;0.70;;
76693;SDS011;65625;52.136;5.424;2023-04-03T09:36:49;1.80;;;0.40;;
76693;SDS011;65625;52.136;5.424;2023-04-03T09:39:25;1.45;;;0.50;;
76693;SDS011;65625;52.136;5.424;2023-04-03T09:42:03;0.85;;;0.30;;
76693;SDS011;65625;52.136;5.424;2023-04-03T09:44:44;2.25;;;0.60;;
76693;SDS011;65625;52.136;5.424;2023-04-03T09:47:38;1.30;;;0.40;;
76693;SDS011;65625;52.136;5.424;2023-04-03T09:50:10;1.13;;;0.40;;
76693;SDS011;65625;52.136;5.424;2023-04-03T09:52:47;1.83;;;0.32;;
76693;SDS011;65625;52.136;5.424;2023-04-03T09:55:16;1.85;;;0.40;;
76693;SDS011;65625;52.136;5.424;2023-04-03T09:57:44;2.03;;;0.50;;
76693;SDS011;65625;52.136;5.424;2023-04-03T10:02:51;1.58;;;0.50;;
76693;SDS011;65625;52.136;5.424;2023-04-03T10:10:40;1.45;;;0.50;;
76693;SDS011;65625;52.136;5.424;2023-04-03T10:13:15;3.15;;;0.55;;
76693;SDS011;65625;52.136;5.424;2023-04-03T10:18:44;1.35;;;0.70;;
76693;SDS011;65625;52.136;5.424;2023-04-03T10:21:20;1.27;;;0.57;;
76693;SDS011;65625;52.136;5.424;2023-04-03T10:24:25;3.22;;;0.32;;
76693;SDS011;65625;52.136;5.424;2023-04-03T10:27:07;0.93;;;0.30;;
76693;SDS011;65625;52.136;5.424;2023-04-03T10:29:51;2.40;;;0.47;;
76693;SDS011;65625;52.136;5.424;2023-04-03T10:35:12;1.90;;;0.40;;
76693;SDS011;65625;52.136;5.424;2023-04-03T10:40:24;1.20;;;0.43;;
76693;SDS011;65625;52.136;5.424;2023-04-03T10:46:40;0.85;;;0.30;;
76693;SDS011;65625;52.136;5.424;2023-04-03T10:51:48;0.80;;;0.30;;
76693;SDS011;65625;52.136;5.424;2023-04-03T10:54:24;3.13;;;0.63;;
76693;SDS011;65625;52.136;5.424;2023-04-03T11:02:36;1.23;;;0.40;;
76693;SDS011;65625;52.136;5.424;2023-04-03T11:05:13;1.15;;;0.40;;
76693;SDS011;65625;52.136;5.424;2023-04-03T11:07:50;2.65;;;0.80;;
76693;SDS011;65625;52.136;5.424;2023-04-03T11:13:15;1.25;;;0.40;;
76693;SDS011;65625;52.136;5.424;2023-04-03T11:16:02;1.88;;;0.50;;
76693;SDS011;65625;52.136;5.424;2023-04-03T11:18:42;3.17;;;0.50;;
76693;SDS011;65625;52.136;5.424;2023-04-03T11:21:21;1.55;;;0.40;;
76693;SDS011;65625;52.136;5.424;2023-04-03T11:23:53;3.53;;;0.60;;
76693;SDS011;65625;52.136;5.424;2023-04-03T11:26:26;2.40;;;0.50;;
76693;SDS011;65625;52.136;5.424;2023-04-03T11:29:03;1.92;;;0.50;;
76693;SDS011;65625;52.136;5.424;2023-04-03T11:34:40;1.45;;;0.50;;
76693;SDS011;65625;52.136;5.424;2023-04-03T11:37:16;2.58;;;0.63;;
76693;SDS011;65625;52.136;5.424;2023-04-03T11:39:55;2.35;;;0.52;;
76693;SDS011;65625;52.136;5.424;2023-04-03T11:42:27;2.28;;;0.60;;
76693;SDS011;65625;52.136;5.424;2023-04-03T11:48:47;1.83;;;0.43;;
76693;SDS011;65625;52.136;5.424;2023-04-03T11:51:00;1.75;;;0.50;;
76693;SDS011;65625;52.136;5.424;2023-04-03T11:53:50;1.13;;;0.40;;
76693;SDS011;65625;52.136;5.424;2023-04-03T12:04:18;2.53;;;0.85;;
76693;SDS011;65625;52.136;5.424;2023-04-03T12:09:25;1.25;;;0.32;;
76693;SDS011;65625;52.136;5.424;2023-04-03T12:11:56;1.30;;;0.43;;
76693;SDS011;65625;52.136;5.424;2023-04-03T12:14:26;3.13;;;0.50;;
76693;SDS011;65625;52.136;5.424;2023-04-03T12:16:54;3.80;;;0.60;;
76693;SDS011;65625;52.136;5.424;2023-04-03T12:19:29;1.85;;;0.65;;
76693;SDS011;65625;52.136;5.424;2023-04-03T12:22:15;0.65;;;0.30;;
76693;SDS011;65625;52.136;5.424;2023-04-03T12:24:45;1.00;;;0.40;;
76693;SDS011;65625;52.136;5.424;2023-04-03T12:30:00;1.88;;;0.40;;
76693;SDS011;65625;52.136;5.424;2023-04-03T12:43:47;3.00;;;0.60;;
76693;SDS011;65625;52.136;5.424;2023-04-03T12:46:36;3.22;;;0.50;;
76693;SDS011;65625;52.136;5.424;2023-04-03T12:49:24;2.10;;;0.50;;
76693;SDS011;65625;52.136;5.424;2023-04-03T12:51:56;1.50;;;0.45;;
76693;SDS011;65625;52.136;5.424;2023-04-03T12:54:29;1.60;;;0.52;;
76693;SDS011;65625;52.136;5.424;2023-04-03T12:57:08;1.45;;;0.68;;
76693;SDS011;65625;52.136;5.424;2023-04-03T12:59:39;3.40;;;0.70;;
76693;SDS011;65625;52.136;5.424;2023-04-03T13:02:12;1.25;;;0.57;;
76693;SDS011;65625;52.136;5.424;2023-04-03T13:05:07;3.53;;;0.63;;
76693;SDS011;65625;52.136;5.424;2023-04-03T13:07:39;1.10;;;0.30;;
76693;SDS011;65625;52.136;5.424;2023-04-03T13:12:35;1.75;;;0.60;;
76693;SDS011;65625;52.136;5.424;2023-04-03T13:15:24;1.58;;;0.50;;
76693;SDS011;65625;52.136;5.424;2023-04-03T13:17:53;1.83;;;0.60;;
76693;SDS011;65625;52.136;5.424;2023-04-03T13:20:23;1.45;;;0.52;;
76693;SDS011;65625;52.136;5.424;2023-04-03T13:22:54;3.88;;;0.57;;
76693;SDS011;65625;52.136;5.424;2023-04-03T13:25:24;1.90;;;1.23;;
76693;SDS011;65625;52.136;5.424;2023-04-03T13:27:56;1.17;;;0.70;;
76693;SDS011;65625;52.136;5.424;2023-04-03T13:30:30;1.30;;;0.50;;
76693;SDS011;65625;52.136;5.424;2023-04-03T13:32:59;1.20;;;0.60;;
76693;SDS011;65625;52.136;5.424;2023-04-03T13:38:03;1.63;;;0.47;;
76693;SDS011;65625;52.136;5.424;2023-04-03T13:40:33;1.25;;;0.45;;
76693;SDS011;65625;52.136;5.424;2023-04-03T13:43:20;1.58;;;0.60;;
76693;SDS011;65625;52.136;5.424;2023-04-03T13:45:53;1.95;;;0.70;;
76693;SDS011;65625;52.136;5.424;2023-04-03T13:48:24;0.90;;;0.40;;
76693;SDS011;65625;52.136;5.424;2023-04-03T13:50:53;1.58;;;0.63;;
76693;SDS011;65625;52.136;5.424;2023-04-03T13:53:31;2.53;;;0.73;;
76693;SDS011;65625;52.136;5.424;2023-04-03T13:58:30;2.95;;;0.60;;
76693;SDS011;65625;52.136;5.424;2023-04-03T14:01:00;1.63;;;0.50;;
76693;SDS011;65625;52.136;5.424;2023-04-03T14:06:09;1.30;;;0.60;;
76693;SDS011;65625;52.136;5.424;2023-04-03T14:08:37;1.20;;;0.57;;
76693;SDS011;65625;52.136;5.424;2023-04-03T14:11:22;1.98;;;0.60;;
76693;SDS011;65625;52.136;5.424;2023-04-03T14:13:53;3.75;;;0.90;;
76693;SDS011;65625;52.136;5.424;2023-04-03T14:16:29;2.55;;;0.60;;
76693;SDS011;65625;52.136;5.424;2023-04-03T14:18:58;2.15;;;0.50;;
76693;SDS011;65625;52.136;5.424;2023-04-03T14:21:25;3.70;;;0.70;;
76693;SDS011;65625;52.136;5.424;2023-04-03T14:23:52;2.00;;;0.50;;
76693;SDS011;65625;52.136;5.424;2023-04-03T14:26:22;1.85;;;0.68;;
76693;SDS011;65625;52.136;5.424;2023-04-03T14:28:52;2.78;;;0.75;;
76693;SDS011;65625;52.136;5.424;2023-04-03T14:31:20;2.83;;;0.68;;
76693;SDS011;65625;52.136;5.424;2023-04-03T14:33:47;3.65;;;1.33;;
76693;SDS011;65625;52.136;5.424;2023-04-03T14:36:15;3.03;;;0.70;;
76693;SDS011;65625;52.136;5.424;2023-04-03T14:38:49;2.10;;;0.70;;
76693;SDS011;65625;52.136;5.424;2023-04-03T14:41:18;3.47;;;0.70;;
76693;SDS011;65625;52.136;5.424;2023-04-03T14:43:47;2.45;;;0.63;;
76693;SDS011;65625;52.136;5.424;2023-04-03T14:46:16;2.55;;;0.73;;
76693;SDS011;65625;52.136;5.424;2023-04-03T14:48:44;2.53;;;0.70;;
76693;SDS011;65625;52.136;5.424;2023-04-03T14:51:12;1.58;;;0.55;;
76693;SDS011;65625;52.136;5.424;2023-04-03T14:53:41;2.80;;;0.70;;
76693;SDS011;65625;52.136;5.424;2023-04-03T14:56:30;5.35;;;1.00;;
76693;SDS011;65625;52.136;5.424;2023-04-03T14:58:59;2.58;;;0.90;;
76693;SDS011;65625;52.136;5.424;2023-04-03T15:01:29;3.35;;;0.80;;
76693;SDS011;65625;52.136;5.424;2023-04-03T15:03:56;2.78;;;0.90;;
76693;SDS011;65625;52.136;5.424;2023-04-03T15:06:23;2.92;;;0.77;;
76693;SDS011;65625;52.136;5.424;2023-04-03T15:08:50;2.05;;;0.75;;
76693;SDS011;65625;52.136;5.424;2023-04-03T15:11:17;2.83;;;0.90;;
76693;SDS011;65625;52.136;5.424;2023-04-03T15:13:44;3.80;;;1.00;;
76693;SDS011;65625;52.136;5.424;2023-04-03T15:16:12;2.63;;;0.77;;
76693;SDS011;65625;52.136;5.424;2023-04-03T15:18:42;1.48;;;0.65;;
76693;SDS011;65625;52.136;5.424;2023-04-03T15:21:09;3.92;;;0.80;;
76693;SDS011;65625;52.136;5.424;2023-04-03T15:23:37;2.25;;;0.90;;
76693;SDS011;65625;52.136;5.424;2023-04-03T15:26:03;4.03;;;0.95;;
76693;SDS011;65625;52.136;5.424;2023-04-03T15:28:32;2.15;;;0.63;;
76693;SDS011;65625;52.136;5.424;2023-04-03T15:31:02;2.83;;;0.90;;
76693;SDS011;65625;52.136;5.424;2023-04-03T15:33:29;1.92;;;0.70;;
76693;SDS011;65625;52.136;5.424;2023-04-03T15:35:56;3.85;;;1.45;;
76693;SDS011;65625;52.136;5.424;2023-04-03T15:38:33;2.30;;;0.85;;
76693;SDS011;65625;52.136;5.424;2023-04-03T15:41:00;4.03;;;1.17;;
76693;SDS011;65625;52.136;5.424;2023-04-03T15:43:27;2.05;;;0.70;;
76693;SDS011;65625;52.136;5.424;2023-04-03T15:45:55;2.65;;;0.93;;
76693;SDS011;65625;52.136;5.424;2023-04-03T15:48:23;3.78;;;1.10;;
76693;SDS011;65625;52.136;5.424;2023-04-03T15:50:49;2.60;;;0.88;;
76693;SDS011;65625;52.136;5.424;2023-04-03T15:53:16;3.78;;;1.10;;
76693;SDS011;65625;52.136;5.424;2023-04-03T15:55:43;2.78;;;0.88;;
76693;SDS011;65625;52.136;5.424;2023-04-03T15:58:09;1.50;;;0.60;;
76693;SDS011;65625;52.136;5.424;2023-04-03T16:00:36;3.17;;;1.02;;
76693;SDS011;65625;52.136;5.424;2023-04-03T16:03:06;4.82;;;1.15;;
76693;SDS011;65625;52.136;5.424;2023-04-03T16:05:36;2.00;;;0.77;;
76693;SDS011;65625;52.136;5.424;2023-04-03T16:08:04;2.90;;;1.00;;
76693;SDS011;65625;52.136;5.424;2023-04-03T16:10:36;4.30;;;1.08;;
76693;SDS011;65625;52.136;5.424;2023-04-03T16:13:04;2.17;;;0.57;;
76693;SDS011;65625;52.136;5.424;2023-04-03T16:15:30;1.40;;;0.60;;
76693;SDS011;65625;52.136;5.424;2023-04-03T16:17:59;3.58;;;1.20;;
76693;SDS011;65625;52.136;5.424;2023-04-03T16:20:26;4.20;;;0.98;;
76693;SDS011;65625;52.136;5.424;2023-04-03T16:22:53;4.15;;;0.75;;
76693;SDS011;65625;52.136;5.424;2023-04-03T16:25:22;2.70;;;0.77;;
76693;SDS011;65625;52.136;5.424;2023-04-03T16:27:48;3.53;;;0.93;;
76693;SDS011;65625;52.136;5.424;2023-04-03T16:30:15;1.92;;;0.80;;
76693;SDS011;65625;52.136;5.424;2023-04-03T16:32:42;3.28;;;1.10;;
76693;SDS011;65625;52.136;5.424;2023-04-03T16:35:09;4.00;;;0.80;;
76693;SDS011;65625;52.136;5.424;2023-04-03T16:37:37;4.35;;;1.00;;
76693;SDS011;65625;52.136;5.424;2023-04-03T16:40:05;2.75;;;0.85;;